Time;durP1;ratioP1;P1;durP2;ratioP2;P2;SDS_P1;SDS_P2;PMS_P1;PMS_P2;Temp;Humidity;BMP_temperature;BMP_pressure;BME280_temperature;BME280_humidity;BME280_pressure;Samples;Min_cycle;Max_cycle;Signal;HPM_P1;HPM_P2
2024/02/20 00:01:48;;;;;;;6.65;4.45;;;;;;;;;;5096668;28;20031;-60
2024/02/20 00:04:17;;;;;;;4.95;4.53;;;;;;;;;;5096869;28;20039;-60
2024/02/20 00:06:43;;;;;;;4.47;4.07;;;;;;;;;;5097319;28;20065;-59
2024/02/20 00:09:08;;;;;;;5.30;3.92;;;;;;;;;;5096482;28;20370;-60
2024/02/20 00:11:33;;;;;;;6.45;4.53;;;;;;;;;;5096547;28;20535;-60
2024/02/20 00:13:58;;;;;;;4.45;4.05;;;;;;;;;;5096693;28;20399;-60
2024/02/20 00:16:24;;;;;;;4.43;4.03;;;;;;;;;;5095474;28;20024;-60
2024/02/20 00:18:50;;;;;;;4.00;3.60;;;;;;;;;;5096354;28;20477;-60
2024/02/20 00:21:15;;;;;;;4.65;3.63;;;;;;;;;;5096157;28;20084;-60
2024/02/20 00:23:41;;;;;;;3.63;3.22;;;;;;;;;;5095458;28;20027;-60
2024/02/20 00:26:07;;;;;;;6.00;4.15;;;;;;;;;;5095116;28;20028;-60
2024/02/20 00:28:40;;;;;;;4.97;3.90;;;;;;;;;;5095244;28;20035;-60
2024/02/20 00:31:06;;;;;;;4.43;4.03;;;;;;;;;;5076998;28;20377;-60
2024/02/20 00:33:31;;;;;;;4.95;3.80;;;;;;;;;;5095055;28;20506;-58
2024/02/20 00:35:57;;;;;;;4.40;3.63;;;;;;;;;;5095149;28;20052;-58
2024/02/20 00:38:22;;;;;;;5.30;3.58;;;;;;;;;;5095540;28;20028;-58
2024/02/20 00:40:47;;;;;;;5.20;3.65;;;;;;;;;;5096033;28;20028;-59
2024/02/20 00:43:13;;;;;;;4.63;4.20;;;;;;;;;;5095783;28;20470;-58
2024/02/20 00:45:39;;;;;;;5.50;3.92;;;;;;;;;;5096015;28;20024;-58
2024/02/20 00:48:05;;;;;;;3.28;2.97;;;;;;;;;;5095703;28;20028;-58
2024/02/20 00:50:31;;;;;;;3.85;3.42;;;;;;;;;;5096006;28;20089;-59
2024/02/20 00:52:57;;;;;;;3.40;3.08;;;;;;;;;;5095682;28;20107;-60
2024/02/20 00:55:22;;;;;;;4.00;3.47;;;;;;;;;;5096147;28;20461;-60
2024/02/20 00:57:47;;;;;;;4.18;3.58;;;;;;;;;;5096202;28;20035;-60
2024/02/20 01:00:13;;;;;;;4.22;3.85;;;;;;;;;;5060630;28;20048;-60
2024/02/20 01:02:41;;;;;;;5.40;4.18;;;;;;;;;;5095801;28;20485;-59
2024/02/20 01:05:09;;;;;;;3.88;3.50;;;;;;;;;;5095782;28;20401;-59
2024/02/20 01:07:36;;;;;;;5.20;4.05;;;;;;;;;;5095796;28;20518;-59
2024/02/20 01:10:02;;;;;;;8.68;4.32;;;;;;;;;;5095913;28;20020;-59
2024/02/20 01:12:27;;;;;;;6.28;4.80;;;;;;;;;;5095639;28;20378;-59
2024/02/20 01:14:52;;;;;;;4.43;3.70;;;;;;;;;;5077253;28;20036;-58
2024/02/20 01:17:18;;;;;;;3.95;3.60;;;;;;;;;;5095951;28;20028;-58
2024/02/20 01:19:43;;;;;;;4.18;3.05;;;;;;;;;;5095176;28;20493;-59
2024/02/20 01:22:08;;;;;;;4.25;3.55;;;;;;;;;;5095067;28;20024;-58
2024/02/20 01:24:34;;;;;;;4.07;3.70;;;;;;;;;;5095460;28;20023;-60
2024/02/20 01:26:59;;;;;;;6.05;3.67;;;;;;;;;;5095134;28;20450;-59
2024/02/20 01:29:25;;;;;;;5.03;4.00;;;;;;;;;;5095359;28;20359;-60
2024/02/20 01:31:50;;;;;;;5.70;3.90;;;;;;;;;;5095684;28;20024;-58
2024/02/20 01:34:15;;;;;;;4.32;3.03;;;;;;;;;;5095139;28;20031;-58
2024/02/20 01:36:41;;;;;;;5.45;3.10;;;;;;;;;;5094752;28;20024;-58
2024/02/20 01:39:07;;;;;;;3.15;2.85;;;;;;;;;;5095186;28;20023;-58
2024/02/20 01:41:33;;;;;;;3.97;3.58;;;;;;;;;;5094696;28;20036;-58
2024/02/20 01:43:58;;;;;;;3.60;3.30;;;;;;;;;;5094788;28;20032;-58
2024/02/20 01:46:24;;;;;;;4.65;3.47;;;;;;;;;;5076553;28;20028;-58
2024/02/20 01:48:50;;;;;;;3.80;3.50;;;;;;;;;;5094868;28;20078;-58
2024/02/20 01:51:15;;;;;;;4.68;3.42;;;;;;;;;;5095291;28;20074;-58
2024/02/20 01:53:41;;;;;;;7.43;4.43;;;;;;;;;;5076324;28;20056;-58
2024/02/20 01:56:07;;;;;;;6.93;5.47;;;;;;;;;;5076380;28;20063;-58
2024/02/20 01:58:33;;;;;;;12.02;6.82;;;;;;;;;;5094883;28;20032;-58
2024/02/20 02:00:58;;;;;;;10.77;6.88;;;;;;;;;;5094864;28;20024;-58
2024/02/20 02:03:24;;;;;;;12.95;8.32;;;;;;;;;;5094368;28;20481;-58
2024/02/20 02:05:50;;;;;;;11.35;7.32;;;;;;;;;;5094906;28;20063;-59
2024/02/20 02:08:17;;;;;;;14.40;7.57;;;;;;;;;;5076137;28;20023;-60
2024/02/20 02:10:42;;;;;;;12.05;7.75;;;;;;;;;;5094028;28;20098;-60
2024/02/20 02:13:08;;;;;;;12.35;7.47;;;;;;;;;;5076597;28;20139;-60
2024/02/20 02:15:33;;;;;;;10.60;7.05;;;;;;;;;;5094601;28;20039;-60
2024/02/20 02:17:59;;;;;;;10.73;7.00;;;;;;;;;;5094074;28;20043;-60
2024/02/20 02:20:24;;;;;;;12.15;6.15;;;;;;;;;;5076747;28;20038;-59
2024/02/20 02:22:49;;;;;;;11.48;5.88;;;;;;;;;;5094627;28;20463;-59
2024/02/20 02:25:16;;;;;;;10.95;5.97;;;;;;;;;;5094125;28;20130;-59
2024/02/20 02:27:42;;;;;;;8.43;5.55;;;;;;;;;;5094603;28;20077;-59
2024/02/20 02:30:09;;;;;;;8.93;5.60;;;;;;;;;;5075779;28;20023;-59
2024/02/20 02:32:34;;;;;;;8.48;5.93;;;;;;;;;;5076190;28;20035;-59
2024/02/20 02:35:00;;;;;;;9.13;5.65;;;;;;;;;;5094390;28;20036;-60
2024/02/20 02:37:25;;;;;;;7.32;5.50;;;;;;;;;;5093995;28;20032;-60
2024/02/20 02:39:50;;;;;;;7.43;5.00;;;;;;;;;;5094010;28;20031;-60
2024/02/20 02:42:16;;;;;;;6.45;4.80;;;;;;;;;;5093800;28;20386;-60
2024/02/20 02:44:43;;;;;;;7.25;5.35;;;;;;;;;;5094318;28;20039;-60
2024/02/20 02:47:09;;;;;;;6.90;5.57;;;;;;;;;;5094289;28;20469;-60
2024/02/20 02:49:34;;;;;;;7.60;4.95;;;;;;;;;;5094077;28;20047;-60
2024/02/20 02:52:00;;;;;;;8.18;5.05;;;;;;;;;;5093790;28;20028;-59
2024/02/20 02:54:25;;;;;;;7.30;4.97;;;;;;;;;;5076029;28;20035;-60
2024/02/20 02:56:51;;;;;;;7.38;4.90;;;;;;;;;;5093665;28;20482;-60
2024/02/20 02:59:17;;;;;;;9.48;5.32;;;;;;;;;;5094113;28;20032;-60
2024/02/20 03:01:43;;;;;;;8.20;5.47;;;;;;;;;;5093875;28;20027;-59
2024/02/20 03:04:08;;;;;;;8.88;4.97;;;;;;;;;;5093843;28;20412;-59
2024/02/20 03:06:40;;;;;;;7.15;4.65;;;;;;;;;;5093883;28;20020;-59
2024/02/20 03:09:12;;;;;;;7.70;4.35;;;;;;;;;;5093824;28;20046;-59
2024/02/20 03:11:42;;;;;;;4.18;3.40;;;;;;;;;;5076078;28;20036;-60
2024/02/20 03:14:08;;;;;;;5.70;3.35;;;;;;;;;;5075743;28;20370;-60
2024/02/20 03:16:33;;;;;;;4.18;3.28;;;;;;;;;;5094006;28;20028;-59
2024/02/20 03:19:00;;;;;;;4.45;4.05;;;;;;;;;;5093658;28;20063;-59
2024/02/20 03:21:26;;;;;;;4.47;3.35;;;;;;;;;;5075956;28;20036;-59
2024/02/20 03:23:52;;;;;;;4.43;3.45;;;;;;;;;;5075819;28;20031;-59
2024/02/20 03:26:18;;;;;;;6.53;3.63;;;;;;;;;;5075598;28;20088;-59
2024/02/20 03:28:43;;;;;;;4.45;3.28;;;;;;;;;;5093972;28;20024;-59
2024/02/20 03:31:09;;;;;;;3.65;3.22;;;;;;;;;;5093692;28;20036;-59
2024/02/20 03:33:34;;;;;;;3.50;3.03;;;;;;;;;;5093409;28;20028;-59
2024/02/20 03:36:02;;;;;;;3.05;2.80;;;;;;;;;;5093307;28;20501;-59
2024/02/20 03:38:28;;;;;;;3.28;2.97;;;;;;;;;;5093225;28;20101;-59
2024/02/20 03:40:54;;;;;;;3.05;2.75;;;;;;;;;;5093128;28;20028;-59
2024/02/20 03:43:20;;;;;;;2.97;2.65;;;;;;;;;;5093872;28;20032;-59
2024/02/20 03:45:46;;;;;;;2.25;2.10;;;;;;;;;;5093272;28;20077;-58
2024/02/20 03:48:11;;;;;;;3.58;3.28;;;;;;;;;;5093250;28;20416;-59
2024/02/20 03:50:37;;;;;;;6.03;3.20;;;;;;;;;;5093112;28;20036;-59
2024/02/20 03:53:02;;;;;;;4.65;3.03;;;;;;;;;;5096543;28;20110;-58
2024/02/20 03:55:28;;;;;;;3.33;3.03;;;;;;;;;;5096815;28;20594;-58
2024/02/20 03:57:53;;;;;;;3.15;2.88;;;;;;;;;;5096953;28;20541;-58
2024/02/20 04:00:24;;;;;;;3.13;2.88;;;;;;;;;;5078579;28;20520;-59
2024/02/20 04:02:50;;;;;;;2.97;2.70;;;;;;;;;;5061850;28;20020;-60
2024/02/20 04:05:16;;;;;;;6.45;3.22;;;;;;;;;;5097158;28;20032;-59
2024/02/20 04:07:41;;;;;;;4.78;3.47;;;;;;;;;;5096633;28;20024;-58
2024/02/20 04:10:07;;;;;;;3.42;3.05;;;;;;;;;;5096307;28;20458;-59
2024/02/20 04:12:32;;;;;;;3.75;3.08;;;;;;;;;;5078834;28;20043;-58
2024/02/20 04:14:58;;;;;;;3.53;2.92;;;;;;;;;;5096701;28;20028;-59
2024/02/20 04:17:23;;;;;;;3.25;2.95;;;;;;;;;;5078218;28;20122;-59
2024/02/20 04:19:48;;;;;;;3.92;2.70;;;;;;;;;;5096271;28;20032;-59
2024/02/20 04:22:14;;;;;;;3.53;2.92;;;;;;;;;;5096302;28;20024;-58
2024/02/20 04:24:39;;;;;;;3.50;2.65;;;;;;;;;;5096217;28;20024;-59
2024/02/20 04:27:05;;;;;;;4.20;2.90;;;;;;;;;;5096410;28;20020;-59
2024/02/20 04:29:30;;;;;;;3.28;2.65;;;;;;;;;;5096711;28;20033;-59
2024/02/20 04:31:55;;;;;;;3.42;2.92;;;;;;;;;;5096113;28;20115;-59
2024/02/20 04:34:21;;;;;;;3.60;2.85;;;;;;;;;;5096327;28;20062;-60
2024/02/20 04:36:46;;;;;;;3.95;2.83;;;;;;;;;;5095817;28;20035;-60
2024/02/20 04:39:11;;;;;;;3.53;3.30;;;;;;;;;;5096629;28;20012;-60
2024/02/20 04:41:37;;;;;;;2.95;2.75;;;;;;;;;;5096605;28;20111;-60
2024/02/20 04:44:02;;;;;;;3.33;3.10;;;;;;;;;;5078097;28;20024;-60
2024/02/20 04:46:29;;;;;;;4.65;3.85;;;;;;;;;;5096072;28;20024;-60
2024/02/20 04:48:54;;;;;;;3.97;3.67;;;;;;;;;;5095871;28;20077;-59
2024/02/20 04:51:20;;;;;;;3.78;3.42;;;;;;;;;;5095269;28;20032;-59
2024/02/20 04:53:45;;;;;;;3.50;3.20;;;;;;;;;;5094010;28;20466;-59
2024/02/20 04:56:10;;;;;;;3.70;3.40;;;;;;;;;;5076507;28;20023;-59
2024/02/20 04:58:36;;;;;;;4.22;3.80;;;;;;;;;;5094552;28;20438;-59
2024/02/20 05:01:01;;;;;;;4.55;3.33;;;;;;;;;;5094336;28;20063;-59
2024/02/20 05:03:28;;;;;;;5.30;4.05;;;;;;;;;;5094370;28;20028;-59
2024/02/20 05:05:53;;;;;;;4.20;3.85;;;;;;;;;;5094761;28;20513;-59
2024/02/20 05:08:18;;;;;;;4.15;3.75;;;;;;;;;;5094951;28;20107;-59
2024/02/20 05:10:44;;;;;;;4.88;4.43;;;;;;;;;;5095315;28;20493;-58
2024/02/20 05:13:11;;;;;;;4.22;3.78;;;;;;;;;;5096084;28;20024;-58
2024/02/20 05:15:36;;;;;;;4.85;4.35;;;;;;;;;;5077111;28;20059;-58
2024/02/20 05:18:02;;;;;;;5.03;4.53;;;;;;;;;;5077845;28;20421;-59
2024/02/20 05:20:27;;;;;;;4.50;4.10;;;;;;;;;;5095373;28;20027;-60
2024/02/20 05:22:53;;;;;;;5.70;4.18;;;;;;;;;;5095579;28;20095;-59
2024/02/20 05:25:18;;;;;;;5.30;4.82;;;;;;;;;;5095418;28;20020;-58
2024/02/20 05:27:43;;;;;;;4.97;4.57;;;;;;;;;;5077099;28;20447;-61
2024/02/20 05:30:10;;;;;;;4.68;4.30;;;;;;;;;;5094964;28;20032;-59
2024/02/20 05:32:37;;;;;;;5.47;4.95;;;;;;;;;;5095262;28;20599;-59
2024/02/20 05:35:03;;;;;;;5.53;4.93;;;;;;;;;;5095335;28;20031;-59
2024/02/20 05:37:28;;;;;;;5.78;4.35;;;;;;;;;;5094887;28;20462;-59
2024/02/20 05:39:53;;;;;;;6.25;4.57;;;;;;;;;;5095398;28;20028;-59
2024/02/20 05:42:19;;;;;;;5.30;4.80;;;;;;;;;;5095273;28;20008;-59
2024/02/20 05:44:44;;;;;;;6.63;4.88;;;;;;;;;;5094959;28;20032;-59
2024/02/20 05:47:10;;;;;;;7.38;5.28;;;;;;;;;;5094903;28;20025;-59
2024/02/20 05:49:35;;;;;;;6.20;5.30;;;;;;;;;;5094950;28;20032;-59
2024/02/20 05:52:01;;;;;;;7.35;5.63;;;;;;;;;;5094541;28;20028;-59
2024/02/20 05:54:26;;;;;;;7.05;5.57;;;;;;;;;;5094797;28;20050;-59
2024/02/20 05:56:51;;;;;;;6.45;5.88;;;;;;;;;;5094613;28;20028;-59
2024/02/20 05:59:17;;;;;;;6.75;5.22;;;;;;;;;;5094430;28;20024;-59
2024/02/20 06:01:42;;;;;;;8.00;5.68;;;;;;;;;;5094419;28;20028;-59
2024/02/20 06:04:07;;;;;;;5.90;5.22;;;;;;;;;;5094636;28;20492;-59
2024/02/20 06:06:34;;;;;;;7.72;6.72;;;;;;;;;;5094188;28;20386;-59
2024/02/20 06:09:00;;;;;;;8.65;7.07;;;;;;;;;;5091263;28;20016;-59
2024/02/20 06:11:26;;;;;;;7.57;6.78;;;;;;;;;;5082554;28;20043;-59
2024/02/20 06:13:52;;;;;;;5.65;5.05;;;;;;;;;;5088495;28;20032;-59
2024/02/20 06:16:18;;;;;;;5.88;5.28;;;;;;;;;;5094540;28;20028;-59
2024/02/20 06:18:43;;;;;;;6.05;5.45;;;;;;;;;;5094171;28;20032;-59
2024/02/20 06:21:09;;;;;;;7.80;6.32;;;;;;;;;;5094094;28;20543;-59
2024/02/20 06:23:38;;;;;;;7.38;5.95;;;;;;;;;;5094535;28;20478;-59
2024/02/20 06:26:03;;;;;;;7.68;5.70;;;;;;;;;;5094314;28;20032;-59
2024/02/20 06:28:29;;;;;;;6.78;5.75;;;;;;;;;;5093499;28;20020;-59
2024/02/20 06:30:55;;;;;;;7.07;6.35;;;;;;;;;;5093030;28;20024;-59
2024/02/20 06:33:21;;;;;;;7.47;6.40;;;;;;;;;;5092660;28;20063;-59
2024/02/20 06:35:46;;;;;;;6.03;5.47;;;;;;;;;;5092395;28;20055;-59
2024/02/20 06:38:11;;;;;;;8.07;5.85;;;;;;;;;;5092831;28;20040;-59
2024/02/20 06:40:37;;;;;;;7.40;6.35;;;;;;;;;;5092454;28;20497;-59
2024/02/20 06:43:02;;;;;;;8.48;6.78;;;;;;;;;;5091982;28;20048;-59
2024/02/20 06:45:27;;;;;;;10.15;7.15;;;;;;;;;;5091770;28;20467;-59
2024/02/20 06:47:53;;;;;;;6.40;5.60;;;;;;;;;;5091850;28;20028;-59
2024/02/20 06:50:18;;;;;;;6.63;5.75;;;;;;;;;;5091835;28;20055;-59
2024/02/20 06:52:44;;;;;;;6.40;5.60;;;;;;;;;;5091815;28;20034;-59
2024/02/20 06:55:09;;;;;;;6.60;5.82;;;;;;;;;;5092454;28;20065;-59
2024/02/20 06:57:37;;;;;;;5.85;5.30;;;;;;;;;;5093692;28;20541;-62
2024/02/20 07:00:03;;;;;;;6.47;5.30;;;;;;;;;;5117202;22;20035;-59
2024/02/20 07:02:55;;;;;;;7.25;5.78;;;;;;;;;;5116612;22;20494;-59
2024/02/20 07:05:30;;;;;;;7.30;5.65;;;;;;;;;;5084367;22;20063;-62
2024/02/20 07:07:55;;;;;;;8.05;5.88;;;;;;;;;;5101754;22;20064;-59
2024/02/20 07:10:21;;;;;;;5.55;5.00;;;;;;;;;;5093822;28;20032;-59
2024/02/20 07:12:46;;;;;;;6.60;5.93;;;;;;;;;;5093802;28;20024;-59
2024/02/20 07:15:11;;;;;;;8.05;6.72;;;;;;;;;;5093551;28;20531;-59
2024/02/20 07:17:37;;;;;;;5.97;5.32;;;;;;;;;;5093483;28;20035;-59
2024/02/20 07:20:03;;;;;;;7.03;6.40;;;;;;;;;;5093951;28;20036;-59
2024/02/20 07:22:29;;;;;;;7.35;6.25;;;;;;;;;;5075446;28;20111;-59
2024/02/20 07:24:55;;;;;;;8.18;6.57;;;;;;;;;;5076085;28;20361;-59
2024/02/20 07:27:20;;;;;;;7.75;6.07;;;;;;;;;;5097329;28;20028;-59
2024/02/20 07:29:47;;;;;;;6.97;5.95;;;;;;;;;;5097596;28;20043;-59
2024/02/20 07:32:12;;;;;;;7.05;5.43;;;;;;;;;;5079729;28;20030;-59
2024/02/20 07:34:38;;;;;;;5.47;4.45;;;;;;;;;;5063142;28;20122;-59
2024/02/20 07:37:06;;;;;;;5.43;4.82;;;;;;;;;;5062299;28;20028;-59
2024/02/20 07:39:31;;;;;;;6.90;5.70;;;;;;;;;;5097349;28;20089;-59
2024/02/20 07:41:57;;;;;;;6.25;5.53;;;;;;;;;;5097109;28;20028;-59
2024/02/20 07:44:22;;;;;;;7.13;5.47;;;;;;;;;;5097592;28;20016;-59
2024/02/20 07:46:48;;;;;;;6.90;5.55;;;;;;;;;;5096986;28;20450;-59
2024/02/20 07:49:13;;;;;;;7.07;5.50;;;;;;;;;;5096995;28;20426;-59
2024/02/20 07:51:39;;;;;;;8.30;6.38;;;;;;;;;;5097182;28;20067;-59
2024/02/20 07:54:04;;;;;;;8.30;6.72;;;;;;;;;;5097090;28;20036;-59
2024/02/20 07:56:30;;;;;;;7.85;6.38;;;;;;;;;;5097098;28;20063;-59
2024/02/20 07:58:55;;;;;;;6.88;6.20;;;;;;;;;;5096786;28;20055;-59
2024/02/20 08:01:22;;;;;;;8.68;6.90;;;;;;;;;;5079014;28;20042;-59
2024/02/20 08:03:48;;;;;;;7.43;6.25;;;;;;;;;;5096894;28;20386;-59
2024/02/20 08:06:14;;;;;;;7.25;6.47;;;;;;;;;;5096645;28;20023;-59
2024/02/20 08:08:41;;;;;;;7.93;6.40;;;;;;;;;;5096437;28;20040;-59
2024/02/20 08:11:06;;;;;;;7.22;5.97;;;;;;;;;;5097056;28;20035;-59
2024/02/20 08:13:32;;;;;;;7.78;6.38;;;;;;;;;;5096506;28;20386;-59
2024/02/20 08:15:58;;;;;;;9.02;7.22;;;;;;;;;;5096388;28;20385;-59
2024/02/20 08:18:24;;;;;;;7.35;6.35;;;;;;;;;;5096663;28;20042;-59
2024/02/20 08:20:49;;;;;;;8.13;7.18;;;;;;;;;;5078742;28;20106;-59
2024/02/20 08:23:15;;;;;;;10.63;7.93;;;;;;;;;;5096260;28;20028;-59
2024/02/20 08:25:40;;;;;;;7.65;6.90;;;;;;;;;;5096529;28;20020;-59
2024/02/20 08:28:05;;;;;;;8.88;6.53;;;;;;;;;;5078046;28;20024;-59
2024/02/20 08:30:31;;;;;;;9.68;7.80;;;;;;;;;;5096442;28;20032;-59
2024/02/20 08:32:56;;;;;;;8.30;6.35;;;;;;;;;;5096128;28;20103;-59
2024/02/20 08:35:21;;;;;;;7.25;6.35;;;;;;;;;;5096079;28;20363;-59
2024/02/20 08:37:47;;;;;;;8.55;7.20;;;;;;;;;;5095224;28;20054;-59
2024/02/20 08:40:12;;;;;;;7.60;6.70;;;;;;;;;;5096472;28;20130;-59
2024/02/20 08:42:37;;;;;;;10.13;7.35;;;;;;;;;;5096198;28;20032;-59
2024/02/20 08:45:04;;;;;;;8.70;6.55;;;;;;;;;;5095859;28;20193;-59
2024/02/20 08:47:30;;;;;;;11.85;7.88;;;;;;;;;;5095815;28;20016;-59
2024/02/20 08:49:56;;;;;;;10.35;7.68;;;;;;;;;;5078270;28;20042;-59
2024/02/20 08:52:21;;;;;;;7.88;5.82;;;;;;;;;;5095710;28;20024;-59
2024/02/20 08:54:46;;;;;;;7.57;5.65;;;;;;;;;;5095765;28;20032;-59
2024/02/20 08:57:11;;;;;;;7.57;6.10;;;;;;;;;;5095682;28;20095;-59
2024/02/20 08:59:37;;;;;;;8.10;6.90;;;;;;;;;;5095488;28;20122;-59
2024/02/20 09:02:03;;;;;;;8.45;6.43;;;;;;;;;;5077501;28;20024;-59
2024/02/20 09:04:29;;;;;;;8.85;6.22;;;;;;;;;;5077368;28;20396;-59
2024/02/20 09:06:54;;;;;;;8.15;6.28;;;;;;;;;;5095509;28;20045;-59
2024/02/20 09:09:22;;;;;;;8.57;6.35;;;;;;;;;;5095968;28;20420;-59
2024/02/20 09:11:51;;;;;;;7.22;6.45;;;;;;;;;;5095627;28;20024;-59
2024/02/20 09:14:17;;;;;;;7.72;6.18;;;;;;;;;;5095316;28;20032;-59
2024/02/20 09:16:43;;;;;;;11.32;7.72;;;;;;;;;;5095287;28;20107;-59
2024/02/20 09:19:09;;;;;;;12.85;8.13;;;;;;;;;;5095415;28;20032;-59
2024/02/20 09:21:34;;;;;;;12.77;8.18;;;;;;;;;;5077352;28;20120;-59
2024/02/20 09:24:00;;;;;;;10.00;7.68;;;;;;;;;;5095134;28;20028;-59
2024/02/20 09:26:25;;;;;;;9.55;6.75;;;;;;;;;;5095648;28;20055;-59
2024/02/20 09:28:51;;;;;;;10.05;7.30;;;;;;;;;;5095027;28;20031;-59
2024/02/20 09:31:16;;;;;;;10.98;7.55;;;;;;;;;;5095217;28;20039;-59
2024/02/20 09:33:42;;;;;;;10.57;8.10;;;;;;;;;;5095220;28;20024;-59
2024/02/20 09:36:09;;;;;;;11.20;9.02;;;;;;;;;;5095128;28;20020;-59
2024/02/20 09:38:36;;;;;;;9.07;7.93;;;;;;;;;;5095113;28;20052;-59
2024/02/20 09:41:03;;;;;;;9.07;7.50;;;;;;;;;;5095030;28;20024;-59
2024/02/20 09:43:29;;;;;;;10.18;7.68;;;;;;;;;;5076570;28;20583;-59
2024/02/20 09:45:56;;;;;;;11.63;8.68;;;;;;;;;;5094730;28;20049;-59
2024/02/20 09:48:21;;;;;;;10.63;7.32;;;;;;;;;;5076245;28;20028;-59
2024/02/20 09:50:48;;;;;;;10.00;7.55;;;;;;;;;;5075832;28;20447;-59
2024/02/20 09:53:14;;;;;;;9.20;7.60;;;;;;;;;;5094869;28;20035;-59
2024/02/20 09:55:40;;;;;;;8.75;7.47;;;;;;;;;;5076340;28;20032;-59
2024/02/20 09:58:05;;;;;;;6.50;5.40;;;;;;;;;;5094515;28;20173;-59
2024/02/20 10:00:31;;;;;;;7.03;6.18;;;;;;;;;;5094375;28;20509;-59
2024/02/20 10:02:59;;;;;;;7.07;6.13;;;;;;;;;;5094915;28;20020;-59
2024/02/20 10:05:25;;;;;;;6.35;4.97;;;;;;;;;;5076470;28;20028;-59
2024/02/20 10:07:58;;;;;;;7.68;5.90;;;;;;;;;;5094121;28;20032;-59
2024/02/20 10:10:25;;;;;;;6.13;5.15;;;;;;;;;;5094571;28;20036;-59
2024/02/20 10:12:59;;;;;;;7.07;4.68;;;;;;;;;;5094293;28;20065;-59
2024/02/20 10:15:25;;;;;;;7.25;6.53;;;;;;;;;;5076019;28;20028;-59
2024/02/20 10:18:01;;;;;;;9.35;6.53;;;;;;;;;;5094171;28;20097;-59
2024/02/20 10:20:26;;;;;;;8.23;6.35;;;;;;;;;;5059261;28;20539;-59
2024/02/20 10:23:01;;;;;;;7.97;6.63;;;;;;;;;;5094365;28;20024;-60
2024/02/20 10:25:26;;;;;;;7.28;5.78;;;;;;;;;;5076372;28;20040;-59
2024/02/20 10:27:52;;;;;;;7.55;6.10;;;;;;;;;;5094285;28;20082;-59
2024/02/20 10:30:18;;;;;;;7.15;6.03;;;;;;;;;;5093992;28;20370;-59
2024/02/20 10:32:43;;;;;;;7.20;6.25;;;;;;;;;;5094250;28;20631;-59
2024/02/20 10:35:09;;;;;;;8.75;6.95;;;;;;;;;;5094471;28;20055;-59
2024/02/20 10:37:35;;;;;;;9.20;7.38;;;;;;;;;;5093857;28;20097;-59
2024/02/20 10:40:08;;;;;;;10.93;8.15;;;;;;;;;;5075712;28;20024;-59
2024/02/20 10:42:37;;;;;;;9.50;8.10;;;;;;;;;;5094351;28;20039;-59
2024/02/20 10:45:09;;;;;;;9.25;7.57;;;;;;;;;;5093806;28;20024;-59
2024/02/20 10:47:44;;;;;;;9.55;7.03;;;;;;;;;;5094027;28;20073;-59
2024/02/20 10:50:11;;;;;;;8.80;6.93;;;;;;;;;;5093743;28;20055;-60
2024/02/20 10:52:36;;;;;;;7.65;6.82;;;;;;;;;;5094027;28;20109;-59
2024/02/20 10:55:05;;;;;;;7.68;6.82;;;;;;;;;;5093679;28;20099;-59
2024/02/20 10:57:31;;;;;;;9.18;6.60;;;;;;;;;;5093964;28;20043;-59
2024/02/20 10:59:56;;;;;;;9.80;7.57;;;;;;;;;;5093594;28;20377;-59
2024/02/20 11:02:21;;;;;;;14.20;9.18;;;;;;;;;;5098119;28;20032;-59
2024/02/20 11:04:47;;;;;;;14.00;9.82;;;;;;;;;;5079732;28;20098;-59
2024/02/20 11:07:13;;;;;;;10.27;7.15;;;;;;;;;;5061728;28;20056;-59
2024/02/20 11:09:38;;;;;;;13.48;9.18;;;;;;;;;;5079526;28;20419;-59
2024/02/20 11:12:08;;;;;;;12.05;9.18;;;;;;;;;;5097722;28;20481;-59
2024/02/20 11:14:34;;;;;;;11.85;9.10;;;;;;;;;;5097669;28;20093;-59
2024/02/20 11:17:00;;;;;;;10.45;9.23;;;;;;;;;;5097881;28;20082;-59
2024/02/20 11:19:25;;;;;;;10.30;8.65;;;;;;;;;;5079625;28;20032;-59
2024/02/20 11:21:52;;;;;;;10.65;8.98;;;;;;;;;;5097434;28;20123;-59
2024/02/20 11:24:18;;;;;;;10.23;8.43;;;;;;;;;;5097489;28;20024;-59
2024/02/20 11:26:47;;;;;;;11.68;9.07;;;;;;;;;;5097655;28;20032;-59
2024/02/20 11:29:14;;;;;;;10.50;8.63;;;;;;;;;;5097619;28;20024;-59
2024/02/20 11:31:40;;;;;;;12.73;9.40;;;;;;;;;;5097602;28;20057;-59
2024/02/20 11:34:14;;;;;;;11.32;9.07;;;;;;;;;;5079127;28;20052;-59
2024/02/20 11:36:42;;;;;;;8.35;7.45;;;;;;;;;;5097231;28;20059;-59
2024/02/20 11:39:08;;;;;;;13.15;10.30;;;;;;;;;;5097431;28;20386;-59
2024/02/20 11:41:34;;;;;;;10.98;8.10;;;;;;;;;;5079042;28;20032;-59
2024/02/20 11:44:00;;;;;;;12.27;10.10;;;;;;;;;;5079262;28;20150;-59
2024/02/20 11:46:26;;;;;;;13.15;9.52;;;;;;;;;;5097317;28;20052;-59
2024/02/20 11:48:51;;;;;;;14.75;11.25;;;;;;;;;;5096985;28;20355;-59
2024/02/20 11:51:21;;;;;;;9.63;8.18;;;;;;;;;;5096898;28;20434;-59
2024/02/20 11:53:47;;;;;;;10.90;8.30;;;;;;;;;;5095944;28;20044;-59
2024/02/20 11:56:13;;;;;;;10.65;8.05;;;;;;;;;;5079046;28;20421;-59
2024/02/20 11:58:39;;;;;;;12.45;8.77;;;;;;;;;;5096815;28;20027;-59
2024/02/20 12:01:05;;;;;;;9.45;8.27;;;;;;;;;;5096673;28;20038;-59
2024/02/20 12:03:31;;;;;;;8.02;6.72;;;;;;;;;;5096744;28;20039;-59
2024/02/20 12:06:00;;;;;;;9.45;8.27;;;;;;;;;;5096944;28;20115;-59
2024/02/20 12:08:30;;;;;;;8.80;7.75;;;;;;;;;;5078346;28;20055;-59
2024/02/20 12:10:56;;;;;;;;;;;;;;;;;;5096978;28;20035;-62
2024/02/20 12:13:23;;;;;;;8.80;6.95;;;;;;;;;;5095909;28;19954;-62
2024/02/20 12:15:49;;;;;;;6.05;5.43;;;;;;;;;;5097046;28;20443;-63
2024/02/20 12:18:28;;;;;;;7.55;6.80;;;;;;;;;;5096389;28;20046;-63
2024/02/20 12:21:09;;;;;;;9.70;6.78;;;;;;;;;;5096574;28;20081;-63
2024/02/20 12:23:36;;;;;;;8.70;7.43;;;;;;;;;;5096613;28;20497;-63
2024/02/20 12:26:05;;;;;;;8.25;6.53;;;;;;;;;;5096300;28;20419;-63
2024/02/20 12:28:31;;;;;;;8.77;6.45;;;;;;;;;;5096553;28;20024;-63
2024/02/20 12:30:56;;;;;;;9.65;6.47;;;;;;;;;;5096696;28;20084;-63
2024/02/20 12:33:23;;;;;;;9.75;6.20;;;;;;;;;;5096425;28;20036;-63
2024/02/20 12:35:48;;;;;;;10.23;6.32;;;;;;;;;;5096354;28;20101;-63
2024/02/20 12:38:13;;;;;;;7.55;5.85;;;;;;;;;;5096065;28;20477;-63
2024/02/20 12:40:40;;;;;;;6.88;5.47;;;;;;;;;;5095930;28;20020;-63
2024/02/20 12:43:06;;;;;;;6.88;5.90;;;;;;;;;;5096219;28;20107;-62
2024/02/20 12:45:31;;;;;;;7.35;4.85;;;;;;;;;;5078128;28;20468;-63
2024/02/20 12:47:56;;;;;;;6.47;5.63;;;;;;;;;;5078573;28;20078;-63
2024/02/20 12:50:22;;;;;;;8.38;6.10;;;;;;;;;;5077711;28;20385;-63
2024/02/20 12:52:47;;;;;;;6.50;4.97;;;;;;;;;;5096326;28;20032;-63
2024/02/20 12:55:13;;;;;;;7.38;6.25;;;;;;;;;;5095967;28;20032;-63
2024/02/20 12:57:38;;;;;;;6.88;6.18;;;;;;;;;;5096240;28;20051;-63
2024/02/20 13:00:04;;;;;;;6.90;5.85;;;;;;;;;;5060772;28;20564;-63
2024/02/20 13:02:30;;;;;;;7.45;6.30;;;;;;;;;;5095880;28;20077;-63
2024/02/20 13:04:56;;;;;;;9.15;6.30;;;;;;;;;;5095543;28;20107;-62
2024/02/20 13:07:22;;;;;;;9.10;6.70;;;;;;;;;;5095744;28;20214;-63
2024/02/20 13:09:51;;;;;;;6.28;5.68;;;;;;;;;;5077330;28;20094;-63
2024/02/20 13:12:16;;;;;;;6.90;5.10;;;;;;;;;;5095382;28;20027;-63
2024/02/20 13:14:47;;;;;;;6.10;5.35;;;;;;;;;;5095377;28;20032;-63
2024/02/20 13:17:12;;;;;;;;;;;;;;;;;;5078710;28;20028;-62
2024/02/20 13:19:37;;;;;;;6.82;5.75;;;;;;;;;;5077120;28;20337;-62
2024/02/20 13:22:03;;;;;;;6.30;5.60;;;;;;;;;;5076697;28;20031;-62
2024/02/20 13:24:28;;;;;;;6.63;5.97;;;;;;;;;;5102394;28;20385;-62
2024/02/20 13:26:53;;;;;;;6.85;6.18;;;;;;;;;;5082141;28;20028;-62
2024/02/20 13:29:19;;;;;;;9.52;6.72;;;;;;;;;;5095034;28;20545;-62
2024/02/20 13:31:44;;;;;;;6.95;5.95;;;;;;;;;;5095120;28;20016;-62
2024/02/20 13:34:10;;;;;;;9.52;6.40;;;;;;;;;;5095455;28;20032;-62
2024/02/20 13:36:36;;;;;;;9.05;6.13;;;;;;;;;;5094863;28;20024;-62
2024/02/20 13:39:02;;;;;;;7.53;4.97;;;;;;;;;;5095338;28;20054;-62
2024/02/20 13:41:28;;;;;;;5.88;5.20;;;;;;;;;;5077042;28;20031;-62
2024/02/20 13:43:53;;;;;;;5.00;4.47;;;;;;;;;;5076634;28;20028;-62
2024/02/20 13:46:19;;;;;;;5.45;4.68;;;;;;;;;;5094749;28;20020;-62
2024/02/20 13:48:44;;;;;;;4.68;3.83;;;;;;;;;;5095043;28;20020;-59
2024/02/20 14:11:20;;;;;;;4.72;3.33;;;;;;;;;;5094830;28;20080;-59
2024/02/20 14:13:45;;;;;;;4.10;3.20;;;;;;;;;;5094524;28;20028;-59
2024/02/20 14:16:15;;;;;;;5.28;3.67;;;;;;;;;;5094476;28;20032;-59
2024/02/20 14:18:41;;;;;;;3.38;3.08;;;;;;;;;;5094287;28;20035;-59
2024/02/20 14:21:06;;;;;;;4.45;3.55;;;;;;;;;;5094603;28;20035;-59
2024/02/20 14:23:32;;;;;;;4.70;3.13;;;;;;;;;;5094368;28;20103;-59
2024/02/20 14:25:57;;;;;;;4.65;3.72;;;;;;;;;;5094086;28;20023;-59
2024/02/20 14:28:23;;;;;;;4.18;3.63;;;;;;;;;;5094511;28;20020;-59
2024/02/20 14:30:48;;;;;;;3.15;2.85;;;;;;;;;;5094099;28;20063;-59
2024/02/20 14:33:13;;;;;;;3.20;2.65;;;;;;;;;;5094134;28;20043;-59
2024/02/20 14:35:39;;;;;;;4.70;3.95;;;;;;;;;;5093465;28;20035;-59
2024/02/20 14:38:05;;;;;;;4.43;3.55;;;;;;;;;;5075790;28;20027;-59
2024/02/20 14:40:31;;;;;;;5.22;4.53;;;;;;;;;;5093694;28;20085;-58
2024/02/20 14:42:56;;;;;;;6.25;5.00;;;;;;;;;;5093842;28;20469;-58
2024/02/20 14:45:21;;;;;;;6.70;4.55;;;;;;;;;;5093972;28;20032;-57
2024/02/20 14:47:49;;;;;;;6.68;4.28;;;;;;;;;;5093746;28;20057;-56
2024/02/20 14:50:15;;;;;;;6.13;4.55;;;;;;;;;;5094332;28;20035;-57
2024/02/20 14:52:41;;;;;;;5.65;4.72;;;;;;;;;;5093694;28;20053;-56
2024/02/20 14:55:07;;;;;;;6.00;5.13;;;;;;;;;;5094178;28;20028;-57